Create Custom Reports and Graphics: Custom Report

Upper Lake

Current Conditions

8/12/20 7:45 PM (-07:00)
Updated Every 15 Minutes
Temp 83.5 °F   0.4
Daily Max Temp 96.0 °F   1.1
Daily Min Temp 52.6 °F   4.2
Daily Rain 0.00 In
RH 17 %   13
Dew Pt 34.8 °F   13.8
Wet Bulb 55.2 °F   5.3
Wind Dir W | 280 °
Wind Spd 6.6 mph   0.4
Wind Gust 14.8 mph   2.7
Leaf Wet 0.0 mins
BatVolt 12.6 V   0.0

Today & Yesterday

Upper Lake

8/12/20 7:45 PM (-07:00)
Updated Every 15 Minutes
Daily Max Temp 96.0 °F   1.1
Daily Min Temp 52.6 °F   4.2
Daily Max Wind 19.0 mph   0.6
Max Wind Time 1736
Max Wind Dir WNW | 299 °
Daily Leaf Wet Hrs 0.0 hrs   0.0
Daily Rain 0.00 In
Max Temp Yest 94.9 °F
Min Temp Yest 56.8 °F
Max Wind Yest 18.4 mph
Leaf Wet Hrs Yest 0.0 Hours
Rain Yest 0.00 In

Rainfall Report

Upper Lake

8/12/20 7:45 PM (-07:00)
Updated Every 15 Minutes
Latest Rain 0.00 In
Daily Rain 0.00 In
Rain Yest 0.00 In
Monthly Rain 0.00 In
Seasonal Rainfall 0.00 In

Last 48 Hours

Upper Lake

Hourly Data | America/Los_Angeles
as of 8/12/20 7:58 PM PDT
Date & Time Temp (°F) Temp2 (°F) RH (%) Dew Pt (°F) Wet Bulb (°F) Wind Dir (°) Wind Spd (mph) Wind Gust (mph) Leaf Wet (mins) Latest Rain (In) Daily Rain (In) Daily Max Temp (°F) Daily Min Temp (°F) Daily Leaf Wet Hrs (hrs)
8/12/20 - 1900 88.7 88.5 15 35.4 56.6 WNW | 297 8.8 17.4 0.0 0.00 0.00 96.0 52.6 0.0
8/12/20 - 1800 91.9 91.7 17 40.4 58.8 WNW | 298 8.8 19.0 0.0 0.00 0.00 96.0 52.6 0.0
8/12/20 - 1700 94.1 93.6 14 37.8 58.4 W | 278 6.6 16.4 0.0 0.00 0.00 96.0 52.6 0.0
8/12/20 - 1600 94.4 93.7 12 34.5 57.4 SE | 129 5.5 11.8 0.0 0.00 0.00 95.5 52.6 0.0
8/12/20 - 1500 93.4 93.1 12 32.7 56.9 SE | 136 4.5 10.9 0.0 0.00 0.00 95.2 52.6 0.0
8/12/20 - 1400 91.2 91.1 14 35.1 57.1 SE | 140 4.7 9.2 0.0 0.00 0.00 93.2 52.6 0.0
8/12/20 - 1300 88.5 88.3 17 37.3 57.4 SE | 137 4.9 9.3 0.0 0.00 0.00 89.9 52.6 0.0
8/12/20 - 1200 85.9 85.0 31 51.8 62.7 S | 179 3.3 6.6 0.0 0.00 0.00 87.4 52.6 0.0
8/12/20 - 1100 82.0 81.0 40 55.1 63.8 SE | 145 2.7 7.0 0.0 0.00 0.00 84.9 52.6 0.0
8/12/20 - 1000 75.1 75.1 51 55.8 63.0 ESE | 102 1.3 3.9 0.0 0.00 0.00 79.6 52.6 0.0
8/12/20 - 0900 67.3 67.6 66 55.5 60.8 E | 80 1.4 3.0 0.0 0.00 0.00 72.0 52.6 0.0
8/12/20 - 0800 58.7 59.3 88 54.9 57.6 ENE | 65 0.9 3.2 0.0 0.00 0.00 62.6 52.6 0.0
8/12/20 - 0700 53.3 53.2 99 53.1 54.3 N | 359 1.0 3.8 0.0 0.00 0.00 61.5 52.6 0.0
8/12/20 - 0600 53.9 53.7 98 53.4 54.7 N | 353 1.6 4.0 0.0 0.00 0.00 61.5 53.1 0.0
8/12/20 - 0500 55.6 55.3 96 54.4 56.1 NE | 37 1.2 4.5 0.0 0.00 0.00 61.5 54.9 0.0
8/12/20 - 0400 57.0 56.7 94 55.3 57.2 NNE | 32 1.1 3.5 0.0 0.00 0.00 61.5 56.4 0.0
8/12/20 - 0300 58.5 58.2 90 55.5 58.0 NNE | 29 0.4 2.5 0.0 0.00 0.00 61.5 57.6 0.0
8/12/20 - 0200 60.5 60.1 83 55.3 58.6 NNE | 17 0.9 3.6 0.0 0.00 0.00 61.5 59.3 0.0
8/12/20 - 0100 62.6 62.6 77 55.3 59.2 NNW | 345 1.7 4.5 0.0 0.00 0.00 94.9 56.8 0.0
8/12/20 - 0000 65.4 64.9 71 55.7 60.4 NE | 55 1.0 3.5 0.0 0.00 0.00 94.9 56.8 0.0
8/11/20 - 2300 70.6 70.3 56 54.2 60.8 W | 263 2.6 6.3 0.0 0.00 0.00 94.9 56.8 0.0
8/11/20 - 2200 73.8 73.6 49 53.5 61.2 WSW | 254 3.5 7.9 0.0 0.00 0.00 94.9 56.8 0.0
8/11/20 - 2100 78.4 78.1 38 50.4 60.5 W | 281 4.9 11.3 0.0 0.00 0.00 94.9 56.8 0.0
8/11/20 - 2000 83.8 83.6 29 48.6 60.7 WNW | 284 5.9 12.9 0.0 0.00 0.00 94.9 56.8 0.0
8/11/20 - 1900 87.6 87.4 27 49.4 61.7 NW | 309 7.3 13.8 0.0 0.00 0.00 94.9 56.8 0.0
8/11/20 - 1800 90.6 90.5 25 49.8 62.4 NW | 311 7.5 18.4 0.0 0.00 0.00 94.9 56.8 0.0
8/11/20 - 1700 92.4 92.3 25 51.6 63.5 WNW | 299 8.6 17.5 0.0 0.00 0.00 94.9 56.8 0.0
8/11/20 - 1600 93.7 93.4 20 46.4 61.4 W | 266 6.9 18.6 0.0 0.00 0.00 94.9 56.8 0.0
8/11/20 - 1500 93.0 92.4 23 49.3 62.5 SSW | 194 4.8 12.4 0.0 0.00 0.00 94.1 56.8 0.0
8/11/20 - 1400 91.3 91.1 25 50.4 62.8 SSW | 210 4.8 11.2 0.0 0.00 0.00 93.1 56.8 0.0
8/11/20 - 1300 89.2 89.6 26 49.7 62.1 WSW | 256 3.9 11.2 0.0 0.00 0.00 91.2 56.8 0.0
8/11/20 - 1200 86.5 86.0 30 51.6 62.6 SW | 236 4.4 9.7 0.0 0.00 0.00 87.8 56.8 0.0
8/11/20 - 1100 83.7 81.8 34 52.2 62.5 SSE | 160 3.7 8.1 0.0 0.00 0.00 85.7 56.8 0.0
8/11/20 - 1000 78.2 77.1 41 52.6 61.7 SE | 140 2.3 5.5 0.0 0.00 0.00 81.2 56.8 0.0
8/11/20 - 0900 69.7 70.0 53 51.6 59.0 ENE | 57 2.3 5.0 0.0 0.00 0.00 74.7 56.8 0.0
8/11/20 - 0800 61.3 61.6 68 50.8 55.9 NE | 50 3.2 5.5 0.0 0.00 0.00 64.7 56.8 0.0
8/11/20 - 0700 57.4 57.4 81 51.7 55.0 NE | 43 2.0 6.3 0.0 0.00 0.00 64.3 56.8 0.0
8/11/20 - 0600 58.0 57.8 79 51.7 55.3 NNE | 20 1.2 4.1 0.0 0.00 0.00 64.3 57.1 0.0
8/11/20 - 0500 59.2 59.1 75 51.2 55.4 NNE | 23 2.2 6.1 0.0 0.00 0.00 64.3 58.1 0.0
8/11/20 - 0400 60.1 60.1 72 51.0 55.7 NNW | 332 1.1 3.2 0.0 0.00 0.00 64.3 59.4 0.0
8/11/20 - 0300 61.5 61.4 73 52.6 57.1 NNE | 31 1.7 4.6 0.0 0.00 0.00 64.3 60.4 0.0
8/11/20 - 0200 63.2 63.0 67 52.1 57.4 ENE | 73 1.8 4.1 0.0 0.00 0.00 64.3 61.9 0.0
8/11/20 - 0100 65.2 65.1 61 51.5 57.7 E | 83 1.2 3.7 0.0 0.00 0.00 99.3 58.7 0.0
8/11/20 - 0000 67.7 67.4 58 52.3 58.9 ENE | 59 0.6 2.6 0.0 0.00 0.00 99.3 58.7 0.0
8/10/20 - 2300 71.7 71.2 46 50.0 58.7 NE | 49 1.5 6.1 0.0 0.00 0.00 99.3 58.7 0.0
8/10/20 - 2200 78.1 77.6 31 45.1 57.9 NW | 308 2.2 7.5 0.0 0.00 0.00 99.3 58.7 0.0
8/10/20 - 2100 81.7 81.6 25 41.7 57.3 W | 273 4.2 10.5 0.0 0.00 0.00 99.3 58.7 0.0
8/10/20 - 2000 89.1 88.8 14 33.9 56.2 WNW | 302 6.3 13.8 0.0 0.00 0.00 99.3 58.7 0.0
8/10/20 - 1900 92.8 92.6 12 32.8 56.7 WNW | 301 9.4 22.0 0.0 0.00 0.00 99.3 58.7 0.0
Max 94.4 93.7 99 55.8 63.8 - 9.4 22.0 0.0 0.00 0.00 99.3 61.9 0.0
Avg 75.7 75.4 48 48.9 59.0 - 3.6 8.5 0.0 0.00 - - - -
Min 53.3 53.2 12 32.7 54.3 - 0.4 2.5 0.0 0.00 0.00 61.5 52.6 0.0
Total - - - - - - - - - 0.00 - - - -

Last 30 Days

Upper Lake

Daily Data | America/Los_Angeles
as of 8/12/20 7:58 PM PDT
Date Daily Max Temp (°F) Max Temp Time Daily Min Temp (°F) Min Temp Time Daily Rain (In) Monthly Rain (In) Seasonal Rainfall (In) Wind Spd (mph) Daily Max Wind (mph) Max Wind Time Max Wind Dir (°) Dew Pt (°F) Max RH (%) Min RH (%) Hrs <= 32F (hrs) Hrs <= 28F (hrs) Chilling <=45F (hrs) Chill Hrs 32-45F (hrs) Utah Chilling (Units) GDDs (DL) GDDs (Mx/Mn) Seas GDDs (DL) Seasonal GDDs (Mx/Mn) Hrs 70-85F (hrs) Hrs > 95F (hrs) Powdery Mildew Stress (pts) Degree Hrs (hrs) Max Temp2 (°F) Min Temp2 (°F) Bat Volt Min Day (V)
8/11/20 94.9 1506 56.8 0624 0.00 0.00 0.00 3.7 18.4 1723 NW | 320 51.4 87 17 0.0 0.0 0.0 0.0 -17.0 25.5 25.8 2,228 2,141 3.45 0.00 0 287.9 95.2 56.7 12.4
8/10/20 99.3 1534 58.7 0630 0.00 0.00 0.00 3.2 23.4 1752 NW | 312 52.2 96 11 0.0 0.0 0.0 0.0 -17.5 28.9 29.0 2,203 2,115 2.70 4.46 10 353.7 99.9 58.7 12.4
8/9/20 101.9 1538 57.1 0630 0.00 0.00 0.00 2.8 23.7 1735 WNW | 293 56.4 97 18 0.0 0.0 0.0 0.0 -17.5 28.5 29.5 2,174 2,086 2.32 3.92 20 353.5 100.0 56.9 12.4
8/8/20 97.3 1638 56.4 0624 0.00 0.00 0.00 2.9 19.0 1718 WNW | 303 55.6 100 21 0.0 0.0 0.0 0.0 -17.0 27.0 26.9 2,145 2,056 2.49 1.69 30 323.5 97.5 56.2 12.4
8/7/20 92.8 1501 54.4 0615 0.00 0.00 0.00 3.6 22.6 1734 NW | 307 56.3 100 27 0.0 0.0 0.0 0.0 -17.0 24.0 23.6 2,118 2,030 3.94 0.00 40 266.6 93.0 54.2 12.4
8/6/20 85.1 1447 54.6 0609 0.00 0.00 0.00 5.6 23.5 1545 WSW | 238 55.1 100 31 0.0 0.0 0.0 0.0 -16.5 20.0 19.8 2,094 2,006 11.84 0.00 20 168.3 85.6 54.4 12.4
8/5/20 84.3 1453 56.6 0632 0.00 0.00 0.00 8.4 22.4 1639 WSW | 258 56.3 98 37 0.0 0.0 0.0 0.0 -14.5 18.2 20.4 2,074 1,986 8.43 0.00 0 120.8 84.5 56.6 12.4
8/4/20 93.0 1356 55.0 0545 0.00 0.00 0.00 5.2 20.4 1953 WNW | 285 55.0 100 18 0.0 0.0 0.0 0.0 -17.5 23.8 24.0 2,056 1,966 4.53 0.00 0 259.3 93.4 54.6 12.4
8/3/20 91.2 1333 53.7 0608 0.00 0.00 0.00 5.6 23.6 1733 NW | 307 50.5 90 19 0.0 0.0 0.0 0.0 -17.0 23.8 22.5 2,032 1,942 4.72 0.00 0 249.1 91.7 53.5 12.4
8/2/20 93.3 1346 53.0 0617 0.00 0.00 0.00 4.7 22.9 1635 WNW | 303 49.3 98 14 0.0 0.0 0.0 0.0 -17.0 24.1 23.1 2,009 1,919 5.76 0.00 0 278.1 93.8 52.5 12.4
8/1/20 94.8 1510 51.2 0603 0.00 0.00 0.00 4.0 22.0 1822 WNW | 292 46.7 98 11 0.0 0.0 0.0 0.0 -16.5 23.9 23.0 1,984 1,896 3.24 0.00 0 285.9 95.5 51.0 12.4
7/31/20 91.8 1359 49.0 0627 0.00 0.00 0.00 4.8 22.6 1825 WNW | 294 42.0 87 10 0.0 0.0 0.0 0.0 0.0 22.1 20.4 1,960 1,873 4.27 0.00 0 257.5 92.8 48.8 12.4
7/30/20 96.8 1712 51.6 0622 0.00 0.00 0.00 3.0 18.0 1730 NW | 320 41.5 92 3 0.0 0.0 0.0 0.0 0.0 24.4 24.2 1,938 1,853 2.14 0.23 0 297.5 95.1 51.3 12.4
7/29/20 96.0 1726 51.9 0633 0.00 0.00 0.00 3.1 16.1 1826 NW | 325 45.9 93 9 0.0 0.0 0.0 0.0 -15.5 25.0 24.0 1,914 1,828 2.21 0.26 0 306.1 94.7 51.7 12.4
7/28/20 99.6 1508 55.0 0551 0.00 0.00 0.00 3.1 22.2 1834 NW | 311 47.2 93 11 0.0 0.0 0.0 0.0 -16.5 27.0 27.3 1,889 1,804 2.04 4.57 0 335.2 99.2 54.7 12.4
7/27/20 99.0 1440 55.1 0621 0.00 0.00 0.00 3.3 21.5 1739 NNW | 327 48.1 91 11 0.0 0.0 0.0 0.0 -17.0 27.3 27.0 1,862 1,777 2.12 4.39 0 340.4 99.2 54.9 12.4
7/26/20 98.4 1657 54.2 0619 0.00 0.00 0.00 2.9 17.6 1825 NW | 310 50.6 95 13 0.0 0.0 0.0 0.0 -17.0 26.7 26.3 1,835 1,750 2.19 3.15 0 332.4 96.9 54.0 12.4
7/25/20 98.0 1612 54.6 0605 0.00 0.00 0.00 3.0 18.3 1759 NW | 324 53.0 100 15 0.0 0.0 0.0 0.0 -16.5 25.5 26.3 1,808 1,724 2.86 0.92 0 302.0 95.9 54.2 12.4
7/24/20 93.9 1508 54.8 0623 0.00 0.00 0.00 3.0 14.8 1849 NW | 305 54.4 98 20 0.0 0.0 0.0 0.0 -16.5 24.3 24.3 1,783 1,697 2.90 0.00 0 270.8 92.9 54.4 12.4
7/23/20 93.0 1453 56.6 0613 0.00 0.00 0.00 4.0 18.7 1815 WNW | 295 55.0 100 22 0.0 0.0 0.0 0.0 -17.5 25.4 24.8 1,758 1,673 3.30 0.00 0 281.5 93.3 56.2 12.4
7/22/20 92.4 1457 59.3 0625 0.00 0.00 0.00 3.4 18.2 1825 W | 280 58.0 99 17 0.0 0.0 0.0 0.0 -21.5 25.4 25.8 1,733 1,648 4.14 0.00 0 264.6 91.3 59.0 12.4
7/21/20 96.8 1543 58.2 0629 0.00 0.00 0.00 2.8 14.3 1642 SSE | 160 58.7 98 23 0.0 0.0 0.0 0.0 -18.0 26.8 27.5 1,707 1,623 3.50 0.83 0 308.3 94.9 58.0 12.4
7/20/20 94.9 1424 56.5 0635 0.00 0.00 0.00 3.8 22.6 1636 NW | 314 54.4 97 18 0.0 0.0 0.0 0.0 -17.5 26.7 25.7 1,681 1,595 3.13 0.00 0 315.8 95.1 56.3 12.4
7/19/20 98.3 1531 57.0 0544 0.00 0.00 0.00 3.0 21.5 1744 NW | 322 54.2 99 17 0.0 0.0 0.0 0.0 -17.5 27.8 27.6 1,654 1,569 2.21 3.42 0 336.7 98.6 56.7 12.4
7/18/20 97.6 1643 57.9 0614 0.00 0.00 0.00 2.9 16.9 2026 WNW | 300 57.2 100 16 0.0 0.0 0.0 0.0 -18.0 27.7 27.8 1,626 1,542 3.48 1.28 0 331.0 95.9 57.7 12.4
7/17/20 94.2 1526 57.4 0611 0.00 0.00 0.00 2.9 15.4 1838 NW | 309 59.0 100 25 0.0 0.0 0.0 0.0 -18.0 26.8 25.8 1,598 1,514 2.86 0.00 0 311.8 93.5 57.1 12.4
7/16/20 96.1 1457 56.9 0616 0.00 0.00 0.00 4.2 20.7 1629 NW | 317 56.8 99 24 0.0 0.0 0.0 0.0 -17.5 27.6 26.5 1,571 1,488 3.45 1.45 0 328.9 96.5 56.6 12.4
7/15/20 98.1 1506 56.7 0626 0.00 0.00 0.00 3.9 21.1 1545 NW | 310 54.8 99 17 0.0 0.0 0.0 0.0 -18.0 28.0 27.4 1,544 1,462 3.32 3.17 0 347.4 98.4 56.3 12.4
7/14/20 96.2 1437 58.4 0606 0.00 0.00 0.00 3.2 17.4 1608 WNW | 296 56.3 100 20 0.0 0.0 0.0 0.0 -17.5 27.4 27.3 1,516 1,434 3.42 0.49 0 321.6 96.8 58.2 12.4
7/13/20 96.2 1545 55.7 0624 0.00 0.00 0.00 3.8 18.4 1702 WNW | 302 55.0 98 19 0.0 0.0 0.0 0.0 -17.5 26.2 25.9 1,488 1,407 5.32 0.72 0 298.2 95.1 55.6 12.4
Max 101.9 - 59.3 - 0.00 0.00 - 8.4 23.7 - - 59.0 100 37 0.0 0.0 0.0 0.0 0.0 28.9 29.5 - - 11.84 4.57 40 353.7 100.0 59.0 12.4
Avg - - - - - 0.00 - 3.8 - - - 52.9 - - 0.0 0.0 0.0 0.0 -16.1 25.5 25.3 - - 3.74 1.17 - - - - -
Min 84.3 - 49.0 - 0.00 0.00 - 2.8 14.3 - - 41.5 87 3 0.0 0.0 0.0 0.0 -21.5 18.2 19.8 - - 2.04 0.00 0 120.8 84.5 48.8 12.4
Total - - - - - - - - - - - - - - 0.0 0.0 0.0 0.0 -482.5 766.0 759.8 - - 112.30 34.95 - - - - -

Chilling & Growing Degree Days

Upper Lake

Daily Data | America/Los_Angeles
as of 8/12/20 7:58 PM PDT
Date Chilling <=45F (hrs) Chill Hrs 32-45F (hrs) Utah Chilling (Units) GDDs (DL) GDDs (Mx/Mn) Seas GDDs (DL) Seasonal GDDs (Mx/Mn)
8/11/20 0.0 0.0 -17.0 25.5 25.8 2,228 2,141
8/10/20 0.0 0.0 -17.5 28.9 29.0 2,203 2,115
8/9/20 0.0 0.0 -17.5 28.5 29.5 2,174 2,086
8/8/20 0.0 0.0 -17.0 27.0 26.9 2,145 2,056
8/7/20 0.0 0.0 -17.0 24.0 23.6 2,118 2,030
8/6/20 0.0 0.0 -16.5 20.0 19.8 2,094 2,006
8/5/20 0.0 0.0 -14.5 18.2 20.4 2,074 1,986
Max 0.0 0.0 -14.5 28.9 29.5 - -
Avg 0.0 0.0 -16.7 24.6 25.0 - -
Min 0.0 0.0 -17.5 18.2 19.8 - -
Total 0.0 0.0 -117.0 172.0 175.1 - -
Calm: 0.0%

Upper Lake Climate Summary

Current Year

Current Year | Showing 1/1/20 - 8/11/20
as of 8/12/20 7:58 PM PDT
Temperature (°F) Precip (in) Days
Month Days Avg Max Avg Min Max Max Min Min Total Daily Min Temp < 28 Daily Min Temp < 32 Daily Max Temp > 90 Daily Max Temp > 100 Daily Rain > 0.01 Daily Rain > 0.1
Jan 2020 31 55.3 34.7 71.4 26.1 3.74 3 13 0 0 17 11
Feb 2020 29 67.3 31.5 77.7 24.4 0 2 18 0 0 0 0
Mar 2020 31 60.7 34.8 81 28.2 1.51 0 8 0 0 9 6
Apr 2020 30 70.7 42.8 86.2 27.9 1.49 1 2 0 0 5 4
May 2020 31 76.5 45.7 97.5 34.4 1.54 0 0 7 0 7 5
Jun 2020 30 85.9 51.7 104.1 37.6 0.01 0 0 12 3 0 0
Jul 2020 31 94.1 53.5 99.6 46.4 0 0 0 26 0 0 0
Aug 2020 11 93.4 55.2 101.9 51.2 0 0 0 9 1 0 0
Total 224 - - - - 8.29 6 41 54 4 38 26
Average 28 75.5 43.7 - - 1.04 0.8 5.1 6.8 0.5 4.8 3.2
Maximum 31 94.1 55.2 104.1 - 3.74 3 18 26 3 17 11
Minimum 11 55.3 31.5 - 24.4 0 0 0 0 0 0 0

Upper Lake Climate Summary

Last Year

Last Year | Showing 1/1/19 - 12/31/19
as of 8/12/20 7:58 PM PDT
Temperature (°F) Precip (in) Days
Month Days Avg Max Avg Min Max Max Min Min Total Daily Min Temp < 28 Daily Min Temp < 32 Daily Max Temp > 90 Daily Max Temp > 100 Daily Rain > 0.01 Daily Rain > 0.1
Jan 2019 31 57.8 36.4 71.8 24.8 9.44 3 9 0 0 11 11
Feb 2019 28 49.6 34 57.1 23 15.92 8 12 0 0 19 16
Mar 2019 31 59.4 37.1 74 27.9 6.68 1 4 0 0 15 11
Apr 2019 30 71.5 44.9 89.7 37.6 0.94 0 0 0 0 8 2
May 2019 31 73.7 44.5 86.5 35.8 3.63 0 0 0 0 9 5
Jun 2019 30 87.2 50.8 97 39.1 0.01 0 0 12 0 0 0
Jul 2019 31 89.9 53.2 97.5 47.9 0.03 0 0 17 0 1 0
Aug 2019 31 91.7 53.8 98.8 48 0.01 0 0 21 0 0 0
Sep 2019 30 83.1 46.8 97.4 33.5 0.24 0 0 11 0 3 1
Oct 2019 31 77 34.1 88.6 22.1 0.03 4 10 0 0 1 0
Nov 2019 30 69.8 32.5 82.9 23.7 1.66 6 15 0 0 3 3
Dec 2019 31 53.7 37.7 61.9 24 6.33 4 10 0 0 17 10
Total 365 - - - - 44.92 26 60 61 0 87 59
Average 30.4 72 42.2 - - 3.74 2.2 5 5.1 0 7.2 4.9
Maximum 31 91.7 53.8 98.8 - 15.92 8 15 21 0 19 16
Minimum 28 49.6 32.5 - 22.1 0.01 0 0 0 0 0 0